createdAt,value
2023-01-09T00:00:20.701Z,3.75
2023-01-09T00:01:20.678Z,3.73
2023-01-09T00:02:20.743Z,3.71
2023-01-09T00:03:20.693Z,3.69
2023-01-09T00:04:20.697Z,3.69
2023-01-09T00:05:20.720Z,3.70
2023-01-09T00:06:20.722Z,3.68
2023-01-09T00:07:20.739Z,3.68
2023-01-09T00:08:20.747Z,3.68
2023-01-09T00:09:20.762Z,3.67
2023-01-09T00:10:20.777Z,3.64
2023-01-09T00:11:20.794Z,3.66
2023-01-09T00:12:20.800Z,3.66
2023-01-09T00:13:20.815Z,3.66
2023-01-09T00:14:20.820Z,3.67
2023-01-09T00:15:20.827Z,3.70
2023-01-09T00:16:20.942Z,3.68
2023-01-09T00:17:20.851Z,3.68
2023-01-09T00:18:20.856Z,3.67
2023-01-09T00:19:20.876Z,3.66
2023-01-09T00:20:20.911Z,3.66
2023-01-09T00:21:20.901Z,3.66
2023-01-09T00:22:20.903Z,3.65
2023-01-09T00:23:20.925Z,3.68
2023-01-09T00:24:20.931Z,3.66
2023-01-09T00:25:20.957Z,3.65
2023-01-09T00:26:20.962Z,3.63
2023-01-09T00:27:20.981Z,3.62
2023-01-09T00:28:20.982Z,3.63
2023-01-09T00:29:21.003Z,3.65
2023-01-09T00:30:21.014Z,3.67
2023-01-09T00:31:21.022Z,3.67
2023-01-09T00:32:21.034Z,3.67
2023-01-09T00:33:21.045Z,3.68
2023-01-09T00:34:21.056Z,3.68
2023-01-09T00:35:21.079Z,3.68
2023-01-09T00:36:21.095Z,3.68
2023-01-09T00:37:21.132Z,3.66
2023-01-09T00:38:21.117Z,3.67
2023-01-09T00:39:21.115Z,3.66
2023-01-09T00:40:21.125Z,3.67
2023-01-09T00:41:21.132Z,3.69
2023-01-09T00:42:21.153Z,3.67
2023-01-09T00:43:21.165Z,3.69
2023-01-09T00:44:21.174Z,3.66
2023-01-09T00:45:21.178Z,3.64
2023-01-09T00:46:21.238Z,3.61
2023-01-09T00:47:21.209Z,3.61
2023-01-09T00:48:21.210Z,3.61
2023-01-09T00:49:21.224Z,3.64
2023-01-09T00:50:21.245Z,3.70
2023-01-09T00:51:21.263Z,3.77
2023-01-09T00:52:21.275Z,3.84
2023-01-09T00:53:21.285Z,3.89
2023-01-09T00:54:21.299Z,3.94
2023-01-09T00:55:21.316Z,3.98
2023-01-09T00:56:21.332Z,4.00
2023-01-09T00:57:21.356Z,4.03
2023-01-09T00:58:21.366Z,4.07
2023-01-09T00:59:21.391Z,4.11
2023-01-09T01:00:21.395Z,4.15
2023-01-09T01:01:21.503Z,4.22
2023-01-09T01:02:21.569Z,4.26
2023-01-09T01:03:21.433Z,4.29
2023-01-09T01:04:21.440Z,4.35
2023-01-09T01:05:21.455Z,4.39
2023-01-09T01:06:21.462Z,4.41
2023-01-09T01:07:21.466Z,4.43
2023-01-09T01:08:21.482Z,4.42
2023-01-09T01:09:21.490Z,4.40
2023-01-09T01:10:21.497Z,4.36
2023-01-09T01:11:21.501Z,4.34
2023-01-09T01:12:21.523Z,4.28
2023-01-09T01:13:21.528Z,4.23
2023-01-09T01:14:21.534Z,4.20
2023-01-09T01:15:21.543Z,4.13
2023-01-09T01:16:21.575Z,4.08
2023-01-09T01:17:21.570Z,4.05
2023-01-09T01:18:21.586Z,4.04
2023-01-09T01:19:21.596Z,4.03
2023-01-09T01:20:21.615Z,4.04
2023-01-09T01:21:21.631Z,4.02
2023-01-09T01:22:21.627Z,4.01
2023-01-09T01:23:21.650Z,3.99
2023-01-09T01:24:21.655Z,3.98
2023-01-09T01:25:21.661Z,3.96
2023-01-09T01:26:21.682Z,3.96
2023-01-09T01:27:21.708Z,3.93
2023-01-09T01:28:21.701Z,3.94
2023-01-09T01:29:21.708Z,3.94
2023-01-09T01:30:21.722Z,3.98
2023-01-09T01:31:21.727Z,3.99
2023-01-09T01:32:21.735Z,4.05
2023-01-09T01:33:21.741Z,4.11
2023-01-09T01:34:21.763Z,4.16
2023-01-09T01:35:21.766Z,4.16
2023-01-09T01:36:21.782Z,4.18
2023-01-09T01:37:21.788Z,4.18
2023-01-09T01:38:21.808Z,4.18
2023-01-09T01:39:21.808Z,4.17
2023-01-09T01:40:21.823Z,4.14
2023-01-09T01:41:21.830Z,4.16
2023-01-09T01:42:21.866Z,4.19
2023-01-09T01:43:21.859Z,4.22
2023-01-09T02:01:22.431Z,4.09
2023-01-09T02:02:22.263Z,4.11
2023-01-09T02:03:22.139Z,4.14
2023-01-09T02:04:22.142Z,4.17
2023-01-09T02:05:22.144Z,4.22
2023-01-09T02:06:22.158Z,4.28
2023-01-09T02:07:22.166Z,4.34
2023-01-09T02:08:22.184Z,4.39
2023-01-09T02:09:22.193Z,4.46
2023-01-09T02:10:22.210Z,4.49
2023-01-09T02:11:22.219Z,4.55
2023-01-09T02:12:22.237Z,4.58
2023-01-09T02:13:22.254Z,4.62
2023-01-09T02:14:22.273Z,4.65
2023-01-09T02:15:22.293Z,4.66
2023-01-09T02:16:22.364Z,4.67
2023-01-09T02:17:22.320Z,4.66
2023-01-09T02:18:22.335Z,4.68
2023-01-09T02:19:22.350Z,4.67
2023-01-09T02:20:22.356Z,4.69
2023-01-09T02:21:22.362Z,4.71
2023-01-09T02:22:22.368Z,4.73
2023-01-09T02:23:22.373Z,4.78
2023-01-09T02:24:22.380Z,4.82
2023-01-09T02:25:22.405Z,4.87
2023-01-09T02:26:22.406Z,4.91
2023-01-09T02:27:22.423Z,4.94
2023-01-09T02:28:22.441Z,4.99
2023-01-09T02:29:22.463Z,4.99
2023-01-09T02:30:22.467Z,5.01
2023-01-09T02:31:22.521Z,5.02
2023-01-09T02:32:22.496Z,5.04
2023-01-09T02:33:22.514Z,5.05
2023-01-09T02:34:22.549Z,5.05
2023-01-09T02:35:22.531Z,5.06
2023-01-09T02:36:22.540Z,5.04
2023-01-09T02:37:22.569Z,5.03
2023-01-09T02:38:22.565Z,5.00
2023-01-09T02:39:22.585Z,5.01
2023-01-09T02:40:22.575Z,4.99
2023-01-09T02:41:22.597Z,5.01
2023-01-09T02:42:22.615Z,5.05
2023-01-09T02:43:22.618Z,5.08
2023-01-09T02:44:22.629Z,5.11
2023-01-09T02:45:22.628Z,5.17
2023-01-09T02:46:22.639Z,5.21
2023-01-09T02:47:22.641Z,5.26
2023-01-09T02:48:22.651Z,5.30
2023-01-09T02:49:22.656Z,5.31
2023-01-09T02:50:22.678Z,5.34
2023-01-09T02:51:22.674Z,5.34
2023-01-09T02:52:22.716Z,5.36
2023-01-09T02:53:23.091Z,5.40
2023-01-09T02:54:22.764Z,5.44
2023-01-09T02:55:22.828Z,5.43
2023-01-09T02:56:23.426Z,5.46
2023-01-09T02:57:22.835Z,5.50
2023-01-09T02:58:23.260Z,5.50
2023-01-09T02:59:23.244Z,5.54
2023-01-09T03:00:22.848Z,5.54
2023-01-09T03:01:23.653Z,5.56
2023-01-09T03:02:23.265Z,5.56
2023-01-09T03:03:23.586Z,5.60
2023-01-09T03:04:23.574Z,5.61
2023-01-09T03:05:22.920Z,5.61
2023-01-09T03:06:22.927Z,5.62
2023-01-09T03:07:23.394Z,5.62
2023-01-09T03:08:22.943Z,5.62
2023-01-09T03:09:23.370Z,5.64
2023-01-09T03:10:22.967Z,5.63
2023-01-09T03:11:22.974Z,5.64
2023-01-09T03:12:23.033Z,5.64
2023-01-09T03:13:23.032Z,5.65
2023-01-09T03:14:23.038Z,5.66
2023-01-09T03:15:23.086Z,5.70
2023-01-09T03:16:23.114Z,5.71
2023-01-09T03:17:23.098Z,5.71
2023-01-09T03:18:23.103Z,5.72
2023-01-09T03:19:23.091Z,5.73
2023-01-09T03:20:23.097Z,5.74
2023-01-09T03:21:23.515Z,5.74
2023-01-09T03:22:23.138Z,5.75
2023-01-09T03:23:23.134Z,5.76
2023-01-09T03:24:23.143Z,5.79
2023-01-09T03:25:23.196Z,5.81
2023-01-09T03:26:23.589Z,5.81
2023-01-09T03:27:23.168Z,5.84
2023-01-09T03:28:23.159Z,5.84
2023-01-09T03:29:23.177Z,5.84
2023-01-09T03:30:23.185Z,5.86
2023-01-09T03:31:23.219Z,5.87
2023-01-09T03:32:23.209Z,5.86
2023-01-09T03:33:23.235Z,5.89
2023-01-09T03:34:23.235Z,5.89
2023-01-09T03:35:23.253Z,5.91
2023-01-09T03:36:23.266Z,5.92
2023-01-09T03:37:23.282Z,5.91
2023-01-09T03:38:23.289Z,5.92
2023-01-09T03:39:23.295Z,5.96
2023-01-09T03:40:23.311Z,5.94
2023-01-09T03:41:23.333Z,5.95
2023-01-09T03:42:23.325Z,5.98
2023-01-09T03:43:23.343Z,6.03
2023-01-09T03:44:23.353Z,6.01
2023-01-09T03:45:23.360Z,6.02
2023-01-09T03:46:23.376Z,6.03
2023-01-09T03:47:23.385Z,6.04
2023-01-09T03:48:23.395Z,6.06
2023-01-09T03:49:23.408Z,6.08
2023-01-09T03:50:23.418Z,6.10
2023-01-09T03:51:23.426Z,6.14
2023-01-09T03:52:23.434Z,6.12
2023-01-09T03:53:23.456Z,6.14
2023-01-09T03:54:23.459Z,6.14
2023-01-09T03:55:23.477Z,6.15
2023-01-09T03:56:23.490Z,6.18
2023-01-09T03:57:23.501Z,6.18
2023-01-09T03:58:23.517Z,6.19
2023-01-09T03:59:23.528Z,6.18
2023-01-09T04:00:23.555Z,6.20
2023-01-09T04:01:23.695Z,6.20
2023-01-09T04:02:23.569Z,6.22
2023-01-09T04:03:23.585Z,6.22
2023-01-09T04:04:23.608Z,6.23
2023-01-09T04:05:23.625Z,6.25
2023-01-09T04:06:23.622Z,6.24
2023-01-09T04:07:23.640Z,6.24
2023-01-09T04:08:23.655Z,6.25
2023-01-09T04:09:23.677Z,6.28
2023-01-09T04:10:23.680Z,6.27
2023-01-09T04:11:23.702Z,6.28
2023-01-09T04:12:23.727Z,6.30
2023-01-09T04:13:23.739Z,6.32
2023-01-09T04:14:23.743Z,6.29
2023-01-09T04:15:23.770Z,6.30
2023-01-09T04:16:23.832Z,6.29
2023-01-09T04:17:23.799Z,6.29
2023-01-09T04:18:23.827Z,6.29
2023-01-09T04:19:23.842Z,6.29
2023-01-09T04:20:23.857Z,6.29
2023-01-09T04:21:23.876Z,6.31
2023-01-09T04:22:23.894Z,6.31
2023-01-09T04:23:23.920Z,6.32
2023-01-09T04:24:23.934Z,6.34
2023-01-09T04:25:23.952Z,6.36
2023-01-09T04:26:23.969Z,6.38
2023-01-09T04:27:23.983Z,6.40
2023-01-09T04:28:23.994Z,6.40
2023-01-09T04:29:24.009Z,6.41
2023-01-09T04:30:24.026Z,6.43
2023-01-09T04:31:24.075Z,6.42
2023-01-09T04:32:24.067Z,6.44
2023-01-09T04:33:24.074Z,6.45
2023-01-09T04:34:24.091Z,6.44
2023-01-09T04:35:24.123Z,6.46
2023-01-09T04:36:24.140Z,6.46
2023-01-09T04:37:24.154Z,6.47
2023-01-09T04:38:24.176Z,6.48
2023-01-09T04:39:24.179Z,6.48
2023-01-09T04:40:24.199Z,6.48
2023-01-09T04:41:24.227Z,6.50
2023-01-09T04:42:24.218Z,6.50
2023-01-09T04:43:24.230Z,6.50
2023-01-09T04:44:24.253Z,6.52
2023-01-09T04:45:24.276Z,6.53
2023-01-09T04:46:24.271Z,6.55
2023-01-09T04:47:24.277Z,6.55
2023-01-09T04:48:24.331Z,6.56
2023-01-09T04:49:24.309Z,6.56
2023-01-09T04:50:24.306Z,6.55
2023-01-09T04:51:24.306Z,6.55
2023-01-09T04:52:24.328Z,6.55
2023-01-09T04:53:24.324Z,6.55
2023-01-09T04:54:24.330Z,6.53
2023-01-09T04:55:24.365Z,6.54
2023-01-09T04:56:24.349Z,6.53
2023-01-09T04:57:24.374Z,6.54
2023-01-09T04:58:24.362Z,6.53
2023-01-09T04:59:24.364Z,6.55
2023-01-09T05:00:24.376Z,6.55
2023-01-09T05:01:24.483Z,6.55
2023-01-09T05:02:24.407Z,6.57
2023-01-09T05:03:24.397Z,6.57
2023-01-09T05:04:24.450Z,6.55
2023-01-09T05:05:24.403Z,6.56
2023-01-09T05:06:24.410Z,6.57
2023-01-09T05:07:24.415Z,6.58
2023-01-09T05:08:24.421Z,6.59
2023-01-09T05:09:24.430Z,6.62
2023-01-09T05:10:24.437Z,6.63
2023-01-09T05:11:24.439Z,6.62
2023-01-09T05:12:24.448Z,6.64
2023-01-09T05:13:24.453Z,6.64
2023-01-09T05:14:24.461Z,6.65
2023-01-09T05:15:24.466Z,6.65
2023-01-09T05:16:24.502Z,6.66
2023-01-09T05:17:24.487Z,6.68
2023-01-09T05:18:24.482Z,6.68
2023-01-09T05:19:24.490Z,6.68
2023-01-09T05:20:24.493Z,6.68
2023-01-09T05:21:24.530Z,6.68
2023-01-09T05:22:24.506Z,6.70
2023-01-09T05:23:24.511Z,6.70
2023-01-09T05:24:24.520Z,6.70
2023-01-09T05:25:24.527Z,6.71
2023-01-09T05:26:24.555Z,6.73
2023-01-09T05:27:24.536Z,6.71
2023-01-09T05:28:24.544Z,6.71
2023-01-09T05:29:24.552Z,6.72
2023-01-09T05:30:24.556Z,6.71
2023-01-09T05:31:24.631Z,6.70
2023-01-09T05:32:24.570Z,6.70
2023-01-09T05:33:24.579Z,6.68
2023-01-09T05:34:24.587Z,6.68
2023-01-09T05:35:24.593Z,6.69
2023-01-09T05:36:24.599Z,6.73
2023-01-09T05:37:24.611Z,6.72
2023-01-09T05:38:24.638Z,6.70
2023-01-09T05:39:24.623Z,6.70
2023-01-09T05:40:28.979Z,6.69
2023-01-09T05:41:24.638Z,6.70
2023-01-09T05:42:24.642Z,6.68
2023-01-09T05:43:24.647Z,6.68
2023-01-09T05:44:24.653Z,6.68
2023-01-09T05:45:24.729Z,6.67
2023-01-09T05:46:24.666Z,6.68
2023-01-09T05:47:24.671Z,6.70
2023-01-09T05:48:24.680Z,6.68
2023-01-09T05:49:24.685Z,6.68
2023-01-09T05:50:24.689Z,6.66
2023-01-09T05:51:24.699Z,6.66
2023-01-09T05:52:24.709Z,6.65
2023-01-09T05:53:24.715Z,6.67
2023-01-09T05:54:24.749Z,6.67
2023-01-09T05:55:24.736Z,6.66
2023-01-09T05:56:24.741Z,6.65
2023-01-09T05:57:24.748Z,6.65
2023-01-09T05:58:24.753Z,6.65
2023-01-09T05:59:24.763Z,6.67
2023-01-09T06:00:24.775Z,6.67
2023-01-09T06:01:24.841Z,6.71
2023-01-09T06:02:24.868Z,6.70
2023-01-09T06:03:24.796Z,6.70
2023-01-09T06:04:24.807Z,6.70
2023-01-09T06:05:24.813Z,6.71
2023-01-09T06:06:24.810Z,6.72
2023-01-09T06:07:24.814Z,6.70
2023-01-09T06:08:24.820Z,6.70
2023-01-09T06:09:24.826Z,6.72
2023-01-09T06:10:24.831Z,6.71
2023-01-09T06:11:24.843Z,6.70
2023-01-09T06:12:24.855Z,6.71
2023-01-09T06:13:24.851Z,6.71
2023-01-09T06:14:24.861Z,6.73
2023-01-09T06:15:24.863Z,6.73
2023-01-09T06:16:24.994Z,6.73
2023-01-09T06:17:24.875Z,6.74
2023-01-09T06:18:24.889Z,6.75
2023-01-09T06:19:24.885Z,6.76
2023-01-09T06:20:24.898Z,6.75
2023-01-09T06:21:24.911Z,6.77
2023-01-09T06:22:24.905Z,6.77
2023-01-09T06:23:24.912Z,6.77
2023-01-09T06:24:24.935Z,6.78
2023-01-09T06:25:24.931Z,6.78
2023-01-09T06:26:24.942Z,6.79
2023-01-09T06:27:24.942Z,6.80
2023-01-09T06:28:24.949Z,6.79
2023-01-09T06:29:24.957Z,6.77
2023-01-09T06:30:24.961Z,6.76
2023-01-09T06:31:25.060Z,6.74
2023-01-09T06:32:24.976Z,6.71
2023-01-09T06:33:24.993Z,6.68
2023-01-09T06:34:24.996Z,6.58
2023-01-09T06:35:24.998Z,6.55
2023-01-09T06:36:25.002Z,6.54
2023-01-09T06:37:25.007Z,6.54
2023-01-09T06:38:25.015Z,6.50
2023-01-09T06:39:25.022Z,6.45
2023-01-09T06:40:25.033Z,6.46
2023-01-09T06:41:25.039Z,6.47
2023-01-09T06:42:25.042Z,6.42
2023-01-09T06:43:25.051Z,6.43
2023-01-09T06:44:25.062Z,6.38
2023-01-09T06:45:25.069Z,6.30
2023-01-09T06:46:25.126Z,6.32
2023-01-09T06:47:25.086Z,6.30
2023-01-09T06:48:25.093Z,6.30
2023-01-09T06:49:25.105Z,6.31
2023-01-09T06:50:25.107Z,6.36
2023-01-09T06:51:25.112Z,6.37
2023-01-09T06:52:25.119Z,6.36
2023-01-09T06:53:25.123Z,6.36
2023-01-09T06:54:26.491Z,6.39
2023-01-09T06:55:25.136Z,6.42
2023-01-09T06:56:25.142Z,6.44
2023-01-09T06:57:25.155Z,6.46
2023-01-09T06:58:25.162Z,6.45
2023-01-09T06:59:25.161Z,6.46
2023-01-09T07:00:25.167Z,6.49
2023-01-09T07:01:25.232Z,6.48
2023-01-09T07:02:25.181Z,6.48
2023-01-09T07:03:25.184Z,6.48
2023-01-09T07:04:25.205Z,6.49
2023-01-09T07:05:25.196Z,6.47
2023-01-09T07:06:25.203Z,6.49
2023-01-09T07:07:25.221Z,6.48
2023-01-09T07:08:25.216Z,6.50
2023-01-09T07:09:25.220Z,6.52
2023-01-09T07:10:25.225Z,6.52
2023-01-09T07:11:25.232Z,6.52
2023-01-09T07:12:25.239Z,6.52
2023-01-09T07:13:25.246Z,6.54
2023-01-09T07:14:25.251Z,6.55
2023-01-09T07:15:25.254Z,6.56
2023-01-09T07:16:25.294Z,6.56
2023-01-09T07:17:25.270Z,6.57
2023-01-09T07:18:25.272Z,6.58
2023-01-09T07:19:25.279Z,6.57
2023-01-09T07:20:25.290Z,6.60
2023-01-09T07:21:25.291Z,6.60
2023-01-09T07:22:25.298Z,6.62
2023-01-09T07:23:25.318Z,6.62
2023-01-09T07:24:25.317Z,6.63
2023-01-09T07:25:25.331Z,6.64
2023-01-09T07:26:25.335Z,6.66
2023-01-09T07:27:25.347Z,6.64
2023-01-09T07:28:25.354Z,6.68
2023-01-09T07:29:25.365Z,6.66
2023-01-09T07:30:25.371Z,6.66
2023-01-09T07:31:25.424Z,6.67
2023-01-09T07:32:25.387Z,6.70
2023-01-09T07:33:25.406Z,6.73
2023-01-09T07:34:25.404Z,6.74
2023-01-09T07:35:25.411Z,6.74
2023-01-09T07:36:25.418Z,6.79
2023-01-09T07:37:25.430Z,6.79
2023-01-09T07:38:25.432Z,6.80
2023-01-09T07:39:25.445Z,6.81
2023-01-09T07:40:25.444Z,6.84
2023-01-09T07:41:25.454Z,6.87
2023-01-09T07:42:25.459Z,6.85
2023-01-09T07:43:25.463Z,6.86
2023-01-09T07:44:25.470Z,6.84
2023-01-09T07:45:25.478Z,6.84
2023-01-09T07:46:25.519Z,6.86
2023-01-09T07:47:25.491Z,6.87
2023-01-09T07:48:25.509Z,6.87
2023-01-09T07:49:26.880Z,6.88
2023-01-09T07:50:25.522Z,6.89
2023-01-09T07:51:25.517Z,6.89
2023-01-09T07:52:25.521Z,6.90
2023-01-09T07:53:25.528Z,6.89
2023-01-09T07:54:25.535Z,6.90
2023-01-09T07:55:25.540Z,6.88
2023-01-09T07:56:25.553Z,6.87
2023-01-09T07:57:25.556Z,6.86
2023-01-09T07:58:25.559Z,6.83
2023-01-09T07:59:25.565Z,6.79
2023-01-09T08:00:25.579Z,6.79
2023-01-09T08:01:25.667Z,6.79
2023-01-09T08:02:25.688Z,6.77
2023-01-09T08:03:25.610Z,6.72
2023-01-09T08:04:25.612Z,6.66
2023-01-09T08:05:25.611Z,6.66
2023-01-09T08:06:25.621Z,6.65
2023-01-09T08:07:25.647Z,6.68
2023-01-09T08:08:25.639Z,6.69
2023-01-09T08:09:25.650Z,6.72
2023-01-09T08:10:25.651Z,6.74
2023-01-09T08:11:25.657Z,6.75
2023-01-09T08:12:25.671Z,6.74
2023-01-09T08:13:25.671Z,6.73
2023-01-09T08:14:25.676Z,6.71
2023-01-09T08:15:25.695Z,6.69
2023-01-09T08:16:25.689Z,6.65
2023-01-09T08:17:26.594Z,6.61
2023-01-09T08:18:25.702Z,6.59
2023-01-09T08:19:25.734Z,6.55
2023-01-09T08:20:25.714Z,6.51
2023-01-09T08:21:25.719Z,6.45
2023-01-09T08:22:25.731Z,6.41
2023-01-09T08:23:25.736Z,6.40
2023-01-09T08:24:25.738Z,6.36
2023-01-09T08:25:25.763Z,6.33
2023-01-09T08:26:25.755Z,6.30
2023-01-09T08:27:25.759Z,6.31
2023-01-09T08:28:25.768Z,6.26
2023-01-09T08:29:25.774Z,6.24
2023-01-09T08:30:25.842Z,6.22
2023-01-09T08:31:25.840Z,6.20
2023-01-09T08:32:25.789Z,6.19
2023-01-09T08:33:25.797Z,6.17
2023-01-09T08:34:25.802Z,6.19
2023-01-09T08:35:25.814Z,6.20
2023-01-09T08:36:25.877Z,6.23
2023-01-09T08:37:25.818Z,6.26
2023-01-09T08:38:25.822Z,6.28
2023-01-09T08:39:25.832Z,6.29
2023-01-09T08:40:25.885Z,6.33
2023-01-09T08:41:25.841Z,6.37
2023-01-09T08:42:25.854Z,6.39
2023-01-09T08:43:25.857Z,6.41
2023-01-09T08:44:25.865Z,6.42
2023-01-09T08:45:25.872Z,6.45
2023-01-09T08:46:25.965Z,6.47
2023-01-09T08:47:25.895Z,6.46
2023-01-09T08:48:25.898Z,6.42
2023-01-09T08:49:25.902Z,6.41
2023-01-09T08:50:25.911Z,6.41
2023-01-09T08:51:25.917Z,6.40
2023-01-09T08:52:25.931Z,6.36
2023-01-09T08:53:25.936Z,6.30
2023-01-09T08:54:25.944Z,6.29
2023-01-09T08:55:25.962Z,6.32
2023-01-09T08:56:25.957Z,6.36
2023-01-09T08:57:25.962Z,6.38
2023-01-09T08:58:25.971Z,6.37
2023-01-09T08:59:25.992Z,6.37
2023-01-09T09:00:26.051Z,6.34
2023-01-09T09:01:26.033Z,6.26
2023-01-09T09:02:26.058Z,6.19
2023-01-09T09:03:26.000Z,6.13
2023-01-09T09:04:26.010Z,6.06
2023-01-09T09:05:26.013Z,6.00
2023-01-09T09:06:26.041Z,5.94
2023-01-09T09:07:26.027Z,5.92
2023-01-09T09:08:26.034Z,5.89
2023-01-09T09:09:26.041Z,5.87
2023-01-09T09:10:26.047Z,5.88
2023-01-09T09:11:26.051Z,5.89
2023-01-09T09:12:26.058Z,5.89
2023-01-09T09:13:26.065Z,5.92
2023-01-09T09:14:26.068Z,5.96
2023-01-09T09:15:26.073Z,6.00
2023-01-09T09:16:26.202Z,6.02
2023-01-09T09:17:26.088Z,6.07
2023-01-09T09:18:26.099Z,6.17
2023-01-09T09:19:26.116Z,6.25
2023-01-09T09:20:26.122Z,6.27
2023-01-09T09:21:26.119Z,6.29
2023-01-09T09:22:26.124Z,6.30
2023-01-09T09:23:26.130Z,6.32
2023-01-09T09:24:26.139Z,6.36
2023-01-09T09:25:26.145Z,6.37
2023-01-09T09:26:26.153Z,6.37
2023-01-09T09:27:26.172Z,6.37
2023-01-09T09:28:26.159Z,6.35
2023-01-09T09:29:26.175Z,6.31
2023-01-09T09:30:26.210Z,6.26
2023-01-09T09:31:26.232Z,6.19
2023-01-09T09:32:26.198Z,6.13
2023-01-09T09:33:26.194Z,6.07
2023-01-09T09:34:26.200Z,6.00
2023-01-09T09:35:26.206Z,5.99
2023-01-09T09:36:26.211Z,5.97
2023-01-09T09:37:26.217Z,5.96
2023-01-09T09:38:26.227Z,5.92
2023-01-09T09:39:26.231Z,5.92
2023-01-09T09:40:26.244Z,5.93
2023-01-09T09:41:26.247Z,5.93
2023-01-09T09:42:26.253Z,5.93
2023-01-09T09:43:26.259Z,5.96
2023-01-09T09:44:26.268Z,6.02
2023-01-09T09:45:26.273Z,6.04
2023-01-09T09:46:26.351Z,6.08
2023-01-09T09:47:26.286Z,6.19
2023-01-09T09:48:26.290Z,6.32
2023-01-09T09:49:26.298Z,6.42
2023-01-09T09:50:26.303Z,6.46
2023-01-09T09:51:26.311Z,6.47
2023-01-09T09:52:26.316Z,6.44
2023-01-09T09:53:26.327Z,6.41
2023-01-09T09:54:26.334Z,6.42
2023-01-09T09:55:26.345Z,6.47
2023-01-09T09:56:26.359Z,6.55
2023-01-09T09:57:26.358Z,6.57
2023-01-09T09:58:26.363Z,6.55
2023-01-09T09:59:27.054Z,6.59
2023-01-09T10:00:26.373Z,6.65
2023-01-09T10:01:26.381Z,6.72
2023-01-09T10:02:26.427Z,6.80
2023-01-09T10:03:33.796Z,6.84
2023-01-09T10:04:26.405Z,6.88
2023-01-09T10:05:26.410Z,6.94
2023-01-09T10:06:26.415Z,6.97
2023-01-09T10:07:26.417Z,7.04
2023-01-09T10:08:26.426Z,7.04
2023-01-09T10:09:26.444Z,7.10
2023-01-09T10:10:26.437Z,7.16
2023-01-09T10:11:26.445Z,7.19
2023-01-09T10:12:26.453Z,7.17
2023-01-09T10:13:26.458Z,7.19
2023-01-09T10:14:26.467Z,7.21
2023-01-09T10:15:26.469Z,7.21
2023-01-09T10:16:26.577Z,7.21
2023-01-09T10:17:26.486Z,7.20
2023-01-09T10:18:26.489Z,7.20
2023-01-09T10:19:26.498Z,7.22
2023-01-09T10:20:26.501Z,7.21
2023-01-09T10:21:26.514Z,7.23
2023-01-09T10:22:26.521Z,7.21
2023-01-09T10:23:26.531Z,7.26
2023-01-09T10:24:26.536Z,7.32
2023-01-09T10:25:26.541Z,7.32
2023-01-09T10:26:26.550Z,7.36
2023-01-09T10:27:26.558Z,7.41
2023-01-09T10:28:26.563Z,7.45
2023-01-09T10:29:26.576Z,7.50
2023-01-09T10:30:26.580Z,7.50
2023-01-09T10:31:26.600Z,7.50
2023-01-09T10:32:26.599Z,7.52
2023-01-09T10:33:26.610Z,7.54
2023-01-09T10:34:26.617Z,7.47
2023-01-09T10:35:32.995Z,7.36
2023-01-09T10:36:26.628Z,7.31
2023-01-09T10:37:26.632Z,7.25
2023-01-09T10:38:26.643Z,7.27
2023-01-09T10:39:26.650Z,7.31
2023-01-09T10:40:26.659Z,7.34
2023-01-09T10:41:26.661Z,7.37
2023-01-09T10:42:26.667Z,7.39
2023-01-09T10:43:26.674Z,7.38
2023-01-09T10:44:26.691Z,7.43
2023-01-09T10:45:26.692Z,7.48
2023-01-09T10:46:26.746Z,7.47
2023-01-09T10:47:26.705Z,7.51
2023-01-09T10:48:26.710Z,7.52
2023-01-09T10:49:26.714Z,7.45
2023-01-09T10:50:26.725Z,7.41
2023-01-09T10:51:26.732Z,7.44
2023-01-09T10:52:26.736Z,7.45
2023-01-09T10:53:26.748Z,7.42
2023-01-09T10:54:26.755Z,7.41
2023-01-09T10:55:26.760Z,7.37
2023-01-09T10:56:26.767Z,7.34
2023-01-09T10:57:26.776Z,7.37
2023-01-09T10:58:26.783Z,7.37
2023-01-09T10:59:26.792Z,7.33
2023-01-09T11:00:26.803Z,7.36
2023-01-09T11:01:26.807Z,7.39
2023-01-09T11:02:26.896Z,7.34
2023-01-09T11:03:26.828Z,7.36
2023-01-09T11:04:26.837Z,7.33
2023-01-09T11:05:27.957Z,7.33
2023-01-09T11:06:26.846Z,7.35
2023-01-09T11:07:26.860Z,7.36
2023-01-09T11:08:26.863Z,7.31
2023-01-09T11:09:26.883Z,7.32
2023-01-09T11:10:26.874Z,7.36
2023-01-09T11:11:26.880Z,7.42
2023-01-09T11:12:26.889Z,7.46
2023-01-09T11:13:26.897Z,7.51
2023-01-09T11:14:26.904Z,7.54
2023-01-09T11:15:26.909Z,7.58
2023-01-09T11:16:26.965Z,7.59
2023-01-09T11:17:26.944Z,7.61
2023-01-09T11:18:26.932Z,7.66
2023-01-09T11:19:26.950Z,7.62
2023-01-09T11:20:26.948Z,7.62
2023-01-09T11:21:26.956Z,7.61
2023-01-09T11:22:26.962Z,7.62
2023-01-09T11:23:26.988Z,7.64
2023-01-09T11:24:26.980Z,7.68
2023-01-09T11:25:26.984Z,7.65
2023-01-09T11:26:26.990Z,7.65
2023-01-09T11:27:26.998Z,7.66
2023-01-09T11:28:27.011Z,7.68
2023-01-09T11:29:27.036Z,7.66
2023-01-09T11:30:27.073Z,7.67
2023-01-09T11:31:27.072Z,7.70
2023-01-09T11:32:27.039Z,7.71
2023-01-09T11:33:27.055Z,7.71
2023-01-09T11:34:27.067Z,7.67
2023-01-09T11:35:27.076Z,7.71
2023-01-09T11:36:27.082Z,7.75
2023-01-09T11:37:27.078Z,7.78
2023-01-09T11:38:27.083Z,7.86
2023-01-09T11:39:27.089Z,7.89
2023-01-09T11:40:27.099Z,7.90
2023-01-09T11:41:27.102Z,7.90
2023-01-09T11:42:27.108Z,7.87
2023-01-09T11:43:27.115Z,7.87
2023-01-09T11:44:27.121Z,7.91
2023-01-09T11:45:27.126Z,7.94
2023-01-09T11:46:27.155Z,7.96
2023-01-09T11:47:27.137Z,7.95
2023-01-09T11:48:27.144Z,7.90
2023-01-09T11:49:27.148Z,7.88
2023-01-09T11:50:27.172Z,7.92
2023-01-09T11:51:27.174Z,7.94
2023-01-09T11:52:27.195Z,7.95
2023-01-09T11:53:27.180Z,7.92
2023-01-09T11:54:27.190Z,7.80
2023-01-09T11:55:32.036Z,7.70
2023-01-09T11:56:27.206Z,7.60
2023-01-09T11:57:27.233Z,7.51
2023-01-09T11:58:27.219Z,7.41
2023-01-09T11:59:27.235Z,7.31
2023-01-09T12:00:27.238Z,7.22
2023-01-09T12:01:27.261Z,7.14
2023-01-09T12:02:27.256Z,7.10
2023-01-09T12:03:27.334Z,7.03
2023-01-09T12:04:27.272Z,7.00
2023-01-09T12:05:27.279Z,6.96
2023-01-09T12:06:27.287Z,6.91
2023-01-09T12:07:27.293Z,6.87
2023-01-09T12:08:27.299Z,6.88
2023-01-09T12:09:27.324Z,6.89
2023-01-09T12:10:27.317Z,6.96
2023-01-09T12:11:27.325Z,7.07
2023-01-09T12:12:27.334Z,7.16
2023-01-09T12:13:27.342Z,7.26
2023-01-09T12:14:27.351Z,7.43
2023-01-09T12:15:27.361Z,7.54
2023-01-09T12:16:27.444Z,7.68
2023-01-09T12:17:27.379Z,7.77
2023-01-09T12:18:27.392Z,7.83
2023-01-09T12:19:27.397Z,7.90
2023-01-09T12:20:27.403Z,7.93
2023-01-09T12:21:27.408Z,7.97
2023-01-09T12:22:27.433Z,7.95
2023-01-09T12:23:27.431Z,7.99
2023-01-09T12:24:27.472Z,7.97
2023-01-09T12:25:27.450Z,7.98
2023-01-09T12:26:27.448Z,8.01
2023-01-09T12:27:27.469Z,8.01
2023-01-09T12:28:27.470Z,8.03
2023-01-09T12:29:27.471Z,8.07
2023-01-09T12:30:27.482Z,8.10
2023-01-09T12:31:27.521Z,8.14
2023-01-09T12:32:27.495Z,8.18
2023-01-09T12:33:27.494Z,8.19
2023-01-09T12:34:27.502Z,8.19
2023-01-09T12:35:27.513Z,8.20
2023-01-09T12:36:27.519Z,8.10
2023-01-09T12:37:27.527Z,8.08
2023-01-09T12:38:27.532Z,8.03
2023-01-09T12:39:27.542Z,8.00
2023-01-09T12:40:27.550Z,7.99
2023-01-09T12:41:27.565Z,7.98
2023-01-09T12:42:27.562Z,7.98
2023-01-09T12:43:27.572Z,7.98
2023-01-09T12:44:35.362Z,7.99
2023-01-09T12:45:27.614Z,7.98
2023-01-09T12:46:27.598Z,7.98
2023-01-09T12:47:27.598Z,7.99
2023-01-09T12:48:27.601Z,7.98
2023-01-09T12:49:27.614Z,8.00
2023-01-09T12:50:27.624Z,7.99
2023-01-09T12:51:27.629Z,8.03
2023-01-09T12:52:27.635Z,8.04
2023-01-09T12:53:27.641Z,8.04
2023-01-09T12:54:27.647Z,8.05
2023-01-09T12:55:27.656Z,8.06
2023-01-09T12:56:27.662Z,8.03
2023-01-09T12:57:27.672Z,8.03
2023-01-09T12:58:27.686Z,8.04
2023-01-09T12:59:27.701Z,8.05
2023-01-09T13:00:27.693Z,8.07
2023-01-09T13:01:27.733Z,8.08
2023-01-09T13:02:27.841Z,8.06
2023-01-09T13:03:27.720Z,8.08
2023-01-09T13:04:27.736Z,8.08
2023-01-09T13:05:27.739Z,8.09
2023-01-09T13:06:27.744Z,8.12
2023-01-09T13:07:27.751Z,8.15
2023-01-09T13:08:27.759Z,8.16
2023-01-09T13:09:27.765Z,8.13
2023-01-09T13:10:27.773Z,8.09
2023-01-09T13:11:27.782Z,8.07
2023-01-09T13:12:27.788Z,8.04
2023-01-09T13:13:27.796Z,8.03
2023-01-09T13:14:27.802Z,8.03
2023-01-09T13:15:27.809Z,8.01
2023-01-09T13:16:27.952Z,8.03
2023-01-09T13:17:27.838Z,8.01
2023-01-09T13:18:27.836Z,8.02
2023-01-09T13:19:27.871Z,8.02
2023-01-09T13:20:27.851Z,8.01
2023-01-09T13:21:27.863Z,8.01
2023-01-09T13:22:27.876Z,8.01
2023-01-09T13:23:27.876Z,8.03
2023-01-09T13:24:27.881Z,8.01
2023-01-09T13:25:27.891Z,7.98
2023-01-09T13:26:27.900Z,7.99
2023-01-09T13:27:27.912Z,7.99
2023-01-09T13:28:27.928Z,8.02
2023-01-09T13:29:27.933Z,8.06
2023-01-09T13:30:27.941Z,8.10
2023-01-09T13:31:27.976Z,8.10
2023-01-09T13:32:27.964Z,8.14
2023-01-09T13:33:27.968Z,8.16
2023-01-09T13:34:27.983Z,8.21
2023-01-09T13:35:27.997Z,8.22